Time;durP1;ratioP1;P1;durP2;ratioP2;P2;SDS_P1;SDS_P2;PMS_P1;PMS_P2;Temp;Humidity;BMP_temperature;BMP_pressure;BME280_temperature;BME280_humidity;BME280_pressure;Samples;Min_cycle;Max_cycle;Signal;HPM_P1;HPM_P2
2022/01/22 00:00:12;;;;;;;2.00;1.50;;;;;;;10.20;71.37;102987.47;5034130;28;20203;-86
2022/01/22 00:02:40;;;;;;;1.85;1.10;;;;;;;10.20;71.03;102984.91;5019461;28;20053;-83
2022/01/22 00:05:12;;;;;;;2.50;1.40;;;;;;;10.13;70.95;102980.13;5032572;28;20085;-86
2022/01/22 00:07:43;;;;;;;1.58;1.40;;;;;;;10.15;71.06;102977.63;5032055;28;20071;-85
2022/01/22 00:10:16;;;;;;;1.83;1.15;;;;;;;10.11;71.83;102971.34;5033324;28;20053;-84
2022/01/22 00:13:07;;;;;;;4.30;1.30;;;;;;;10.13;72.19;102974.94;5035795;28;20081;-84
2022/01/22 00:15:41;;;;;;;1.55;1.00;;;;;;;10.12;72.27;102973.13;5032326;28;20045;-85
2022/01/22 00:18:10;;;;;;;1.80;1.20;;;;;;;10.10;72.26;102972.16;5034230;28;20061;-87
2022/01/22 00:20:39;;;;;;;1.75;1.25;;;;;;;10.08;73.29;102965.97;5032445;28;20056;-85
2022/01/22 00:23:08;;;;;;;1.88;1.20;;;;;;;10.08;72.27;102971.16;5018122;28;20045;-87
2022/01/22 00:25:37;;;;;;;1.40;0.90;;;;;;;10.04;72.67;102974.31;5032272;28;20601;-83
2022/01/22 00:28:10;;;;;;;2.47;0.82;;;;;;;9.98;73.69;102979.06;5031502;28;20423;-86
2022/01/22 00:30:40;;;;;;;1.60;1.02;;;;;;;9.94;73.65;102969.31;5031947;28;20129;-83
2022/01/22 00:33:10;;;;;;;1.90;0.80;;;;;;;9.86;74.99;102969.69;5033814;28;20049;-90
2022/01/22 00:35:39;;;;;;;3.78;0.80;;;;;;;9.79;74.85;102972.66;5032310;28;20125;-89
2022/01/22 00:38:08;;;;;;;0.90;0.80;;;;;;;9.77;73.92;102978.53;5035554;28;20060;-84
2022/01/22 00:40:37;;;;;;;2.72;0.85;;;;;;;9.70;73.88;102979.78;5032375;28;20061;-85
2022/01/22 00:43:06;;;;;;;1.17;0.90;;;;;;;9.69;74.81;102985.75;5031897;28;20046;-88
2022/01/22 00:45:34;;;;;;;1.58;0.80;;;;;;;9.67;73.89;102977.00;5035501;28;20045;-88
2022/01/22 00:48:05;;;;;;;0.98;0.75;;;;;;;9.63;74.22;102982.75;5031637;28;20082;-86
2022/01/22 00:50:34;;;;;;;1.05;0.70;;;;;;;9.52;75.82;102965.59;5035854;28;20402;-87
2022/01/22 00:53:02;;;;;;;1.48;0.90;;;;;;;9.39;76.06;102975.09;5044765;28;20049;-88
2022/01/22 00:55:31;;;;;;;1.98;0.80;;;;;;;9.28;77.28;102969.94;5035339;28;20045;-87
2022/01/22 00:58:00;;;;;;;1.33;0.80;;;;;;;9.17;77.27;102972.69;5034338;28;20037;-87
2022/01/22 01:00:29;;;;;;;2.22;0.70;;;;;;;9.10;79.00;102979.91;5031489;28;20045;-87
2022/01/22 01:02:57;;;;;;;1.52;0.95;;;;;;;9.07;80.05;102978.00;5031658;28;20045;-85
2022/01/22 01:05:28;;;;;;;1.58;1.00;;;;;;;9.02;81.50;102979.31;5030976;28;20052;-86
2022/01/22 01:07:56;;;;;;;1.25;0.80;;;;;;;9.02;82.82;102977.66;5031682;28;20041;-87
2022/01/22 01:10:25;;;;;;;1.23;0.80;;;;;;;9.05;83.24;102974.41;5033973;28;20056;-87
2022/01/22 01:12:54;;;;;;;1.20;0.90;;;;;;;9.07;83.30;102966.75;5030643;28;20118;-86
2022/01/22 01:15:37;;;;;;;1.77;0.95;;;;;;;9.06;83.05;102962.38;5032686;28;20069;-85
2022/01/22 01:34:44;;;;;;;3.42;1.27;;;;;;;9.16;81.28;102970.91;5035518;28;20156;-87
2022/01/22 01:37:17;;;;;;;2.85;1.48;;;;;;;9.13;81.76;102969.78;5030816;28;20049;-87
2022/01/22 01:39:50;;;;;;;2.35;1.15;;;;;;;9.11;81.22;102971.34;5031400;28;20503;-84
2022/01/22 01:42:24;;;;;;;1.98;1.05;;;;;;;9.14;82.56;102972.47;5029841;28;20087;-86
2022/01/22 01:44:53;;;;;;;1.45;0.90;;;;;;;9.15;81.16;102978.53;5030633;28;20060;-86
2022/01/22 01:47:23;;;;;;;1.52;1.02;;;;;;;9.08;82.37;102973.72;5032722;28;20050;-87
2022/01/22 01:49:52;;;;;;;1.92;1.10;;;;;;;9.06;81.67;102973.59;5030405;28;20494;-86
2022/01/22 01:52:32;;;;;;;2.83;1.27;;;;;;;9.00;81.90;102963.75;5030072;28;20053;-90
2022/01/22 01:55:04;;;;;;;3.88;1.52;;;;;;;8.99;82.34;102967.09;5030847;28;20111;-85
2022/01/22 01:57:41;;;;;;;2.30;1.30;;;;;;;8.94;81.76;102968.47;5030983;28;20049;-84
2022/01/22 02:00:19;;;;;;;2.08;1.20;;;;;;;8.95;83.77;102978.00;5030127;28;20100;-86
2022/01/22 02:02:52;;;;;;;2.13;1.23;;;;;;;8.97;83.08;102973.84;5030544;28;20049;-85
2022/01/22 02:05:21;;;;;;;;;;;;;;;9.00;84.06;102984.41;5031086;28;20049;-87
2022/01/22 02:07:54;;;;;;;3.10;1.40;;;;;;;8.96;84.27;102976.34;5035187;28;19921;-91
2022/01/22 02:10:26;;;;;;;;;;;;;;;9.01;84.43;102975.84;5026281;28;20063;-87
2022/01/22 02:24:01;;;;;;;3.38;1.45;;;;;;;8.96;83.66;102977.22;5034566;28;20119;-90
2022/01/22 02:26:30;;;;;;;3.63;2.08;;;;;;;8.92;81.76;102970.03;5036924;28;20073;-87
2022/01/22 02:28:59;;;;;;;4.07;1.45;;;;;;;8.91;82.60;102977.66;5035875;28;20056;-81
2022/01/22 02:31:34;;;;;;;2.80;1.52;;;;;;;8.91;84.32;102977.66;5037356;28;20057;-90
2022/01/22 02:34:12;;;;;;;3.83;1.80;;;;;;;8.88;84.30;102972.28;5037214;28;20499;-88
2022/01/22 02:36:55;;;;;;;2.28;1.50;;;;;;;8.81;84.45;102971.84;5049849;28;20064;-89
2022/01/22 02:39:35;;;;;;;2.78;1.60;;;;;;;8.81;84.43;102968.38;5039313;28;20046;-87
2022/01/22 02:42:03;;;;;;;2.70;1.50;;;;;;;8.78;83.42;102965.56;5025161;28;20101;-90
2022/01/22 02:44:42;;;;;;;2.65;1.70;;;;;;;8.77;85.31;102969.84;5040316;28;20045;-93
2022/01/22 02:47:12;;;;;;;2.75;1.40;;;;;;;8.79;84.87;102969.94;5021370;28;20077;-89
2022/01/22 02:49:40;;;;;;;3.88;1.85;;;;;;;8.76;83.42;102965.44;5036838;28;20053;-88
2022/01/22 02:52:17;;;;;;;3.33;2.08;;;;;;;8.75;84.33;102963.66;5037141;28;20076;-93
2022/01/22 02:54:46;;;;;;;5.03;2.15;;;;;;;8.72;84.48;102957.38;5035013;28;20100;-89
2022/01/22 02:57:15;;;;;;;2.38;1.67;;;;;;;8.76;84.22;102957.72;5035430;28;20087;-90
2022/01/22 02:59:44;;;;;;;2.33;1.83;;;;;;;8.75;85.06;102963.66;5038687;28;20049;-87
2022/01/22 03:02:15;;;;;;;2.92;1.73;;;;;;;8.73;86.89;102957.50;5037643;28;20554;-90
2022/01/22 03:04:44;;;;;;;3.42;2.08;;;;;;;8.74;87.52;102958.38;5035902;28;20255;-89
2022/01/22 03:07:15;;;;;;;2.17;1.45;;;;;;;8.73;86.95;102965.25;5039010;28;20099;-84
2022/01/22 03:09:45;;;;;;;3.22;1.67;;;;;;;8.76;87.22;102962.88;5037644;28;20582;-90
2022/01/22 03:12:44;;;;;;;4.20;2.13;;;;;;;8.77;87.15;102958.59;5032994;28;20045;-86
2022/01/22 03:15:33;;;;;;;2.97;1.73;;;;;;;8.77;86.74;102954.34;5032997;28;20046;-89
2022/01/22 03:18:06;;;;;;;2.75;1.95;;;;;;;8.75;86.42;102952.44;5022437;28;20342;-87
2022/01/22 03:21:02;;;;;;;;;;;;;;;8.74;86.14;102955.81;5033717;28;20049;-90
2022/01/22 03:29:09;;;;;;;2.25;1.60;;;;;;;8.58;86.81;102940.91;5007324;28;20535;-85
2022/01/22 03:31:40;;;;;;;3.03;1.55;;;;;;;8.55;87.82;102946.72;5034499;28;20532;-86
2022/01/22 03:34:09;;;;;;;2.55;1.60;;;;;;;8.53;88.08;102930.25;5029699;28;20689;-92
2022/01/22 03:36:38;;;;;;;2.63;1.52;;;;;;;8.51;89.07;102931.81;5004070;28;20485;-92
2022/01/22 03:39:10;;;;;;;3.00;1.50;;;;;;;8.53;89.68;102931.94;5009058;28;20070;-90
2022/01/22 03:41:39;;;;;;;2.72;1.30;;;;;;;8.54;90.14;102934.63;5000496;28;20047;-92
2022/01/22 03:44:08;;;;;;;2.33;1.63;;;;;;;8.53;90.53;102937.09;5020861;28;20535;-90
2022/01/22 03:46:38;;;;;;;2.33;1.48;;;;;;;8.52;89.32;102933.63;4998451;28;20050;-91
2022/01/22 03:49:10;;;;;;;1.50;1.40;;;;;;;8.51;88.71;102924.06;5006053;28;20054;-90
2022/01/22 03:51:38;;;;;;;1.58;1.30;;;;;;;8.51;88.93;102924.06;5001826;28;20082;-86
2022/01/22 03:54:09;;;;;;;2.05;1.50;;;;;;;8.51;90.01;102924.06;5001702;28;20054;-90
2022/01/22 03:56:38;;;;;;;2.20;1.40;;;;;;;8.52;89.95;102924.97;5000829;28;20050;-91
2022/01/22 03:59:09;;;;;;;2.17;1.50;;;;;;;8.52;90.94;102925.88;5003613;28;20061;-92
2022/01/22 04:04:28;;;;;;;4.65;1.42;;;;;;;8.54;89.93;102914.00;5002091;28;20074;-91
2022/01/22 04:07:31;;;;;;;1.73;1.10;;;;;;;8.55;90.19;102910.59;5002343;28;20061;-91
2022/01/22 04:10:03;;;;;;;2.25;1.17;;;;;;;8.54;90.28;102903.66;5006233;28;20050;-86
2022/01/22 04:12:39;;;;;;;;;;;;;;;8.53;95.78;102906.13;4987062;28;20058;-88
2022/01/22 04:15:10;;;;;;;2.78;1.42;;;;;;;8.52;97.81;102914.63;4992285;28;19932;-90
2022/01/22 04:26:02;;;;;;;2.58;1.73;;;;;;;8.46;95.32;102914.22;4992487;28;20552;-90
2022/01/22 04:28:31;;;;;;;3.72;1.52;;;;;;;8.45;92.78;102913.28;4995755;28;20492;-87
2022/01/22 04:30:59;;;;;;;3.03;1.50;;;;;;;8.45;93.34;102908.13;4997208;28;20081;-89
2022/01/22 04:33:28;;;;;;;2.60;1.95;;;;;;;8.45;93.38;102896.91;4999011;28;20062;-87
2022/01/22 04:35:56;;;;;;;2.45;1.65;;;;;;;8.46;93.09;102902.19;4997136;28;20101;-90
2022/01/22 04:38:25;;;;;;;7.32;2.05;;;;;;;8.46;90.87;102899.63;4996016;28;20045;-83
2022/01/22 04:40:55;;;;;;;3.78;1.75;;;;;;;8.44;89.56;102900.31;4998050;28;20085;-85
2022/01/22 04:43:23;;;;;;;3.67;2.00;;;;;;;8.41;92.61;102897.47;4984572;28;20073;-86
2022/01/22 04:46:06;;;;;;;2.97;2.15;;;;;;;8.40;91.08;102894.00;5011394;28;20054;-80
2022/01/22 04:48:49;;;;;;;2.50;1.58;;;;;;;8.39;90.33;102895.66;4992162;28;20098;-79
2022/01/22 04:56:51;;;;;;;3.22;2.00;;;;;;;8.34;90.35;102899.59;4992127;28;20058;-83
2022/01/22 04:59:19;;;;;;;2.47;1.77;;;;;;;8.32;90.93;102901.16;4990702;28;20531;-82
2022/01/22 05:01:48;;;;;;;2.25;1.83;;;;;;;8.28;89.39;102896.56;4993826;28;20046;-82
2022/01/22 05:04:17;;;;;;;2.50;1.80;;;;;;;8.25;89.23;102903.19;4992812;28;20050;-83
2022/01/22 05:06:45;;;;;;;3.42;1.70;;;;;;;8.25;90.55;102895.47;4992882;28;20547;-79
2022/01/22 05:09:14;;;;;;;2.15;1.60;;;;;;;8.25;91.55;102893.78;4990799;28;20456;-84
2022/01/22 05:11:42;;;;;;;2.72;2.22;;;;;;;8.26;91.30;102894.66;4995384;28;20067;-85
2022/01/22 05:14:12;;;;;;;2.60;1.88;;;;;;;8.26;90.55;102892.09;4995548;28;20053;-85
2022/01/22 05:16:41;;;;;;;3.33;2.13;;;;;;;8.27;91.43;102893.88;5001505;28;20054;-85
2022/01/22 05:19:14;;;;;;;3.17;1.70;;;;;;;8.26;90.31;102900.72;4990793;28;20070;-86
2022/01/22 05:21:44;;;;;;;3.80;2.00;;;;;;;8.25;92.46;102893.78;4992839;28;20074;-85
2022/01/22 05:24:17;;;;;;;4.10;2.00;;;;;;;8.26;92.19;102895.56;4991720;28;20078;-86
2022/01/22 05:27:10;;;;;;;2.28;2.05;;;;;;;8.27;91.00;102891.28;4991090;28;20050;-86
2022/01/22 05:30:02;;;;;;;5.38;1.98;;;;;;;8.29;91.23;102887.13;4990946;28;20056;-84
2022/01/22 05:32:48;;;;;;;3.13;1.80;;;;;;;8.29;91.02;102884.56;4992113;28;20437;-84
2022/01/22 05:38:02;;;;;;;3.38;1.85;;;;;;;8.23;91.88;102884.13;4990718;28;20132;-88
2022/01/22 05:40:31;;;;;;;4.38;2.10;;;;;;;8.19;92.45;102883.88;4996805;28;20121;-86
2022/01/22 05:43:00;;;;;;;2.58;2.08;;;;;;;8.19;94.03;102873.56;5004459;28;20054;-87
2022/01/22 05:45:30;;;;;;;2.40;1.77;;;;;;;8.18;92.93;102871.78;4995679;28;20061;-88
2022/01/22 05:47:58;;;;;;;2.88;1.85;;;;;;;8.21;92.41;102876.28;4995019;28;20116;-88
2022/01/22 05:50:31;;;;;;;2.88;2.05;;;;;;;8.21;92.44;102875.38;4994921;28;20057;-91
2022/01/22 05:53:04;;;;;;;3.00;2.20;;;;;;;8.21;91.95;102872.81;4990872;28;20054;-91
2022/01/22 06:01:15;;;;;;;5.63;2.10;;;;;;;8.23;91.81;102856.66;4998695;28;20057;-80
2022/01/22 06:03:44;;;;;;;2.97;2.25;;;;;;;8.24;90.39;102852.38;4995011;28;20051;-82
2022/01/22 06:06:13;;;;;;;4.00;2.35;;;;;;;8.24;91.81;102853.28;4994062;28;20519;-81
2022/01/22 06:08:47;;;;;;;4.32;2.15;;;;;;;8.27;92.24;102850.00;4996836;28;20050;-85
2022/01/22 06:11:21;;;;;;;3.05;1.88;;;;;;;8.25;90.67;102847.34;4995595;28;20094;-83
2022/01/22 06:13:50;;;;;;;2.95;2.33;;;;;;;8.28;90.28;102851.81;4998699;28;20057;-82
2022/01/22 06:16:22;;;;;;;2.83;2.10;;;;;;;8.26;91.00;102846.56;5016526;28;20511;-84
2022/01/22 06:18:51;;;;;;;3.80;1.90;;;;;;;8.25;91.12;102852.50;5015118;28;20511;-89
2022/01/22 06:21:19;;;;;;;3.65;2.10;;;;;;;8.24;91.25;102845.53;4997662;28;20086;-84
2022/01/22 06:23:48;;;;;;;2.78;2.00;;;;;;;8.25;92.31;102849.03;4994744;28;20078;-79
2022/01/22 06:26:16;;;;;;;4.57;2.20;;;;;;;8.23;92.05;102846.34;4994868;28;20134;-79
2022/01/22 06:28:45;;;;;;;3.33;2.00;;;;;;;8.23;92.55;102853.19;4995136;28;20046;-82
2022/01/22 06:31:14;;;;;;;4.15;2.80;;;;;;;8.22;92.12;102852.25;4994232;28;20069;-83
2022/01/22 06:33:44;;;;;;;3.47;2.45;;;;;;;8.21;91.25;102855.63;5006768;28;20055;-81
2022/01/22 06:36:12;;;;;;;3.28;2.40;;;;;;;8.22;91.40;102848.78;5014042;28;20061;-82
2022/01/22 06:38:41;;;;;;;3.22;2.35;;;;;;;8.23;91.72;102859.22;5014114;28;20137;-81
2022/01/22 06:43:54;;;;;;;3.45;2.40;;;;;;;8.23;90.05;102858.34;5033121;28;20056;-82
2022/01/22 06:46:23;;;;;;;2.80;2.10;;;;;;;8.21;91.67;102865.06;5017602;28;20113;-84
2022/01/22 06:48:53;;;;;;;5.35;2.45;;;;;;;8.19;91.18;102865.84;5014103;28;20101;-85
2022/01/22 06:51:22;;;;;;;2.58;1.95;;;;;;;8.18;91.50;102864.06;5014256;28;20050;-89
2022/01/22 06:53:52;;;;;;;2.30;1.80;;;;;;;8.19;91.55;102868.41;5013929;28;20046;-81
2022/01/22 06:56:21;;;;;;;2.25;1.80;;;;;;;8.18;90.47;102866.63;5013381;28;20053;-78
2022/01/22 06:58:50;;;;;;;2.58;1.92;;;;;;;8.18;90.36;102865.75;5016536;28;20046;-79
2022/01/22 07:01:18;;;;;;;3.28;1.83;;;;;;;8.17;90.79;102875.13;5014067;28;20653;-78
2022/01/22 07:03:47;;;;;;;4.13;2.10;;;;;;;8.17;90.94;102875.13;5012933;28;20145;-78
2022/01/22 07:06:17;;;;;;;2.60;1.90;;;;;;;8.17;90.17;102864.81;5013467;28;20069;-79
2022/01/22 07:08:46;;;;;;;3.33;2.03;;;;;;;8.17;91.26;102863.94;5013902;28;20077;-78
2022/01/22 07:11:14;;;;;;;3.42;2.15;;;;;;;8.17;92.16;102864.81;5013350;28;20085;-79
2022/01/22 07:13:42;;;;;;;3.25;2.13;;;;;;;8.17;91.64;102863.94;5012967;28;20084;-78
2022/01/22 07:16:11;;;;;;;3.25;2.30;;;;;;;8.16;92.01;102857.88;5013462;28;20101;-78
2022/01/22 07:18:40;;;;;;;2.30;1.80;;;;;;;8.13;90.55;102855.09;5013254;28;20046;-78
2022/01/22 07:21:17;;;;;;;2.22;1.77;;;;;;;8.11;89.65;102858.34;5012994;28;20120;-79
2022/01/22 07:24:22;;;;;;;2.20;1.92;;;;;;;8.08;88.81;102864.16;5013321;28;20042;-78
2022/01/22 07:26:51;;;;;;;3.90;1.90;;;;;;;8.04;89.62;102862.16;5001696;28;20046;-78
2022/01/22 07:29:20;;;;;;;2.58;1.88;;;;;;;8.02;90.00;102856.00;5012925;28;20133;-78
2022/01/22 07:31:49;;;;;;;3.65;1.92;;;;;;;8.00;90.49;102854.97;5012135;28;20054;-79
2022/01/22 07:34:17;;;;;;;3.67;2.42;;;;;;;7.97;91.16;102854.72;5013919;28;20054;-78
2022/01/22 07:36:45;;;;;;;3.72;2.00;;;;;;;7.95;91.02;102851.16;5012360;28;20053;-79
2022/01/22 07:39:15;;;;;;;3.35;2.33;;;;;;;7.89;92.59;102850.72;5012496;28;20073;-78
2022/01/22 07:41:44;;;;;;;2.47;1.95;;;;;;;7.89;92.14;102848.13;5021124;28;20554;-77
2022/01/22 07:44:12;;;;;;;2.13;1.75;;;;;;;7.87;90.03;102841.97;5017794;28;20112;-77
2022/01/22 07:46:41;;;;;;;3.03;2.10;;;;;;;7.87;91.60;102831.66;5026935;28;20484;-78
2022/01/22 07:49:10;;;;;;;3.03;2.03;;;;;;;7.86;92.07;102837.59;5012861;28;20321;-79
2022/01/22 07:51:38;;;;;;;2.67;1.90;;;;;;;7.81;92.26;102837.25;5012215;28;20046;-78
2022/01/22 07:54:06;;;;;;;2.70;1.85;;;;;;;7.80;91.39;102840.59;5012214;28;20046;-77
2022/01/22 07:56:37;;;;;;;3.88;2.15;;;;;;;7.83;91.42;102845.09;5013733;28;20152;-78
2022/01/22 07:59:05;;;;;;;3.78;1.95;;;;;;;7.80;92.27;102845.75;5014994;28;20504;-77
2022/01/22 08:01:33;;;;;;;3.00;2.30;;;;;;;7.75;93.84;102852.25;5012485;28;20101;-78
2022/01/22 08:04:02;;;;;;;3.72;2.03;;;;;;;7.74;94.27;102850.44;5011211;28;20082;-77
2022/01/22 08:06:30;;;;;;;2.80;1.75;;;;;;;7.75;93.67;102852.25;5012415;28;20045;-77
2022/01/22 08:08:59;;;;;;;2.38;1.80;;;;;;;7.76;94.27;102857.53;5012663;28;20085;-77
2022/01/22 08:11:27;;;;;;;2.70;1.92;;;;;;;7.75;93.73;102863.47;5012171;28;20125;-76
2022/01/22 08:13:58;;;;;;;3.53;1.80;;;;;;;7.74;93.36;102864.25;5013735;28;20085;-77
2022/01/22 08:16:39;;;;;;;2.03;1.73;;;;;;;7.74;93.73;102855.59;4998431;28;20090;-77
2022/01/22 08:19:07;;;;;;;2.60;1.92;;;;;;;7.74;93.87;102861.69;5012288;28;20046;-77
2022/01/22 08:21:36;;;;;;;6.63;2.63;;;;;;;7.75;93.29;102862.56;4998976;28;20061;-77
2022/01/22 08:24:05;;;;;;;3.30;2.00;;;;;;;7.76;92.85;102865.28;5012172;28;20093;-77
2022/01/22 08:26:37;;;;;;;3.63;2.40;;;;;;;7.78;93.40;102862.78;5012149;28;20057;-77
2022/01/22 08:29:07;;;;;;;2.50;1.75;;;;;;;7.78;93.44;102851.59;5011718;28;20153;-77
2022/01/22 08:31:53;;;;;;;2.22;1.77;;;;;;;7.76;93.67;102849.81;5011314;28;20046;-77
2022/01/22 08:37:06;;;;;;;2.70;2.05;;;;;;;7.70;91.87;102841.63;4998120;28;20466;-77
2022/01/22 08:39:34;;;;;;;3.40;2.03;;;;;;;7.69;92.67;102837.22;5011539;28;20508;-77
2022/01/22 08:42:03;;;;;;;2.30;2.00;;;;;;;7.67;93.36;102832.75;5021383;28;20100;-77
2022/01/22 08:44:33;;;;;;;2.47;2.00;;;;;;;7.65;93.57;102829.16;5011150;28;20046;-77
2022/01/22 08:47:02;;;;;;;4.18;2.15;;;;;;;7.63;92.61;102821.34;5010952;28;20054;-78
2022/01/22 08:49:30;;;;;;;4.20;2.00;;;;;;;7.64;93.75;102814.50;5011882;28;20101;-77
2022/01/22 08:51:59;;;;;;;2.08;1.88;;;;;;;7.62;94.09;102813.47;5010638;28;20108;-77
2022/01/22 08:54:27;;;;;;;4.20;2.03;;;;;;;7.60;94.05;102823.66;4997650;28;20109;-77
2022/01/22 08:56:56;;;;;;;2.67;2.03;;;;;;;7.58;95.13;102820.06;5013948;28;20089;-77
2022/01/22 08:59:24;;;;;;;2.50;1.65;;;;;;;7.59;95.20;102826.16;5010404;28;20124;-76
2022/01/22 09:01:54;;;;;;;4.32;2.28;;;;;;;7.59;97.78;102819.31;5011556;28;20046;-77
2022/01/22 09:04:23;;;;;;;3.17;2.22;;;;;;;7.62;97.98;102822.09;5011288;28;20474;-77
2022/01/22 09:06:51;;;;;;;2.58;1.88;;;;;;;7.64;96.96;102815.38;5011052;28;20491;-77
2022/01/22 09:09:20;;;;;;;3.33;2.08;;;;;;;7.62;95.77;102804.06;5011314;28;20105;-78
2022/01/22 09:11:49;;;;;;;3.00;2.15;;;;;;;7.63;94.15;102808.44;5010820;28;20388;-78
2022/01/22 09:14:18;;;;;;;2.53;2.03;;;;;;;7.60;94.20;102797.91;5011003;28;20548;-77
2022/01/22 09:16:48;;;;;;;4.30;2.67;;;;;;;7.58;95.35;102799.44;5011464;28;20065;-78
2022/01/22 09:19:18;;;;;;;2.65;1.90;;;;;;;7.59;95.31;102800.38;5010561;28;20046;-78
2022/01/22 09:21:48;;;;;;;2.97;2.28;;;;;;;7.59;96.83;102801.28;5011114;28;20045;-78
2022/01/22 09:24:18;;;;;;;3.45;2.13;;;;;;;7.54;98.36;102800.03;5011051;28;20100;-79
2022/01/22 09:26:47;;;;;;;4.10;2.50;;;;;;;7.50;98.22;102808.31;4997430;28;20470;-79
2022/01/22 09:29:16;;;;;;;4.07;2.72;;;;;;;7.48;98.16;102809.88;5010581;28;20465;-79
2022/01/22 09:31:46;;;;;;;3.15;2.38;;;;;;;7.45;97.58;102800.25;5010661;28;20492;-78
2022/01/22 09:34:17;;;;;;;2.63;2.40;;;;;;;7.44;96.03;102811.31;5012423;28;20054;-78
2022/01/22 09:36:45;;;;;;;3.40;2.25;;;;;;;7.45;96.35;102815.69;5010500;28;20113;-78
2022/01/22 09:39:14;;;;;;;5.70;2.75;;;;;;;7.43;95.64;102816.38;5010764;28;20046;-79
2022/01/22 09:41:43;;;;;;;4.38;2.10;;;;;;;7.41;95.10;102813.66;5018306;28;20093;-78
2022/01/22 09:44:12;;;;;;;3.13;2.00;;;;;;;7.41;95.32;102813.66;5019747;28;20049;-78
2022/01/22 09:46:41;;;;;;;2.53;2.22;;;;;;;7.42;94.63;102817.13;5014341;28;20110;-79
2022/01/22 09:49:09;;;;;;;3.05;1.92;;;;;;;7.39;95.49;102825.53;5010873;28;20537;-79
2022/01/22 09:51:40;;;;;;;2.20;2.00;;;;;;;7.38;95.74;102812.56;5010197;28;20050;-79
2022/01/22 09:54:10;;;;;;;2.33;1.75;;;;;;;7.39;96.69;102822.06;5010657;28;20056;-78
2022/01/22 09:56:40;;;;;;;3.78;2.55;;;;;;;7.38;97.04;102820.28;5013283;28;20053;-79
2022/01/22 09:59:10;;;;;;;2.45;1.83;;;;;;;7.38;97.42;102825.44;5010908;28;20046;-79
2022/01/22 10:01:39;;;;;;;2.35;1.80;;;;;;;7.40;95.98;102817.03;5010987;28;20042;-78
2022/01/22 10:04:09;;;;;;;2.50;2.00;;;;;;;7.41;96.39;102828.22;5010256;28;20085;-79
2022/01/22 10:06:53;;;;;;;2.47;1.63;;;;;;;7.41;96.18;102823.06;5012271;28;20054;-78
2022/01/22 10:09:37;;;;;;;3.10;1.90;;;;;;;7.43;96.56;102827.56;5011516;28;20335;-78
2022/01/22 10:12:10;;;;;;;2.80;2.13;;;;;;;7.44;96.44;102813.88;5010832;28;20054;-78
2022/01/22 10:15:05;;;;;;;3.78;1.73;;;;;;;7.47;95.62;102815.81;5012972;28;20046;-78
2022/01/22 10:17:44;;;;;;;3.92;2.03;;;;;;;7.48;94.76;102817.59;5011919;28;20452;-78
2022/01/22 10:20:30;;;;;;;3.58;1.95;;;;;;;7.50;94.30;102813.47;5012092;28;20046;-79
2022/01/22 10:23:02;;;;;;;2.95;1.95;;;;;;;7.48;94.69;102810.75;5011442;28;20065;-79
2022/01/22 10:25:36;;;;;;;2.40;1.97;;;;;;;7.50;93.90;102808.31;5012038;28;20061;-78
2022/01/22 10:28:06;;;;;;;3.03;1.92;;;;;;;7.46;95.75;102811.44;5011564;28;20312;-78
2022/01/22 10:30:38;;;;;;;3.38;1.88;;;;;;;7.46;96.78;102806.28;5005219;28;20443;-78
2022/01/22 10:33:27;;;;;;;3.28;1.98;;;;;;;7.44;94.88;102813.00;5010682;28;20042;-78
2022/01/22 10:36:08;;;;;;;2.90;1.95;;;;;;;7.46;95.80;102811.44;5012888;28;20131;-78
2022/01/22 10:38:44;;;;;;;3.13;1.92;;;;;;;7.44;93.99;102810.41;5010968;28;20053;-79
2022/01/22 10:41:13;;;;;;;2.05;1.65;;;;;;;7.41;95.08;102807.63;5013051;28;20074;-78
2022/01/22 10:43:51;;;;;;;2.33;1.77;;;;;;;7.43;95.33;102806.94;5019979;28;20105;-79
2022/01/22 10:46:32;;;;;;;2.88;1.88;;;;;;;7.44;96.03;102813.00;5024573;28;20081;-78
2022/01/22 10:49:04;;;;;;;2.92;1.65;;;;;;;7.40;94.60;102801.59;5013873;28;20064;-78
2022/01/22 10:51:33;;;;;;;2.05;1.50;;;;;;;7.47;94.93;102813.25;5014015;28;20082;-79
2022/01/22 10:54:05;;;;;;;2.28;1.83;;;;;;;7.48;94.95;102817.59;5016490;28;20125;-78
2022/01/22 10:56:34;;;;;;;2.83;1.48;;;;;;;7.45;93.64;102815.69;5016589;28;20050;-78
2022/01/22 10:59:05;;;;;;;2.60;1.65;;;;;;;7.43;95.10;102814.69;5014545;28;20069;-79
2022/01/22 11:01:47;;;;;;;3.03;1.70;;;;;;;7.43;93.33;102814.69;5014184;28;20050;-78
2022/01/22 11:04:18;;;;;;;2.53;1.83;;;;;;;7.43;93.77;102801.81;5014018;28;20442;-79
2022/01/22 11:06:52;;;;;;;1.95;1.63;;;;;;;7.43;94.09;102806.06;5013947;28;20093;-79
2022/01/22 11:09:23;;;;;;;2.35;1.40;;;;;;;7.43;95.10;102799.22;5014358;28;20053;-78
2022/01/22 11:11:51;;;;;;;2.67;1.80;;;;;;;7.44;94.84;102795.84;5013866;28;20046;-79
2022/01/22 11:14:21;;;;;;;2.08;1.38;;;;;;;7.43;94.66;102790.59;5013379;28;20448;-79
2022/01/22 11:16:52;;;;;;;4.00;1.75;;;;;;;7.43;95.21;102793.19;5013931;28;20113;-79
2022/01/22 11:19:22;;;;;;;3.95;2.10;;;;;;;7.42;94.79;102797.44;5013682;28;20054;-78
2022/01/22 11:21:53;;;;;;;2.78;1.90;;;;;;;7.41;94.86;102792.16;5013663;28;20050;-79
2022/01/22 11:24:26;;;;;;;3.42;2.10;;;;;;;7.38;94.04;102797.09;5013903;28;20448;-78
2022/01/22 11:26:57;;;;;;;3.55;1.85;;;;;;;7.36;94.93;102789.25;5013465;28;20057;-79
2022/01/22 11:29:28;;;;;;;2.47;1.92;;;;;;;7.36;94.88;102783.22;5013591;28;20042;-78
2022/01/22 11:32:02;;;;;;;2.58;1.60;;;;;;;7.36;94.53;102778.06;5012705;28;20050;-79
2022/01/22 11:34:32;;;;;;;4.18;2.30;;;;;;;7.37;95.78;102787.56;5014958;28;20523;-78
2022/01/22 11:37:09;;;;;;;3.88;2.53;;;;;;;7.36;95.16;102785.78;5012919;28;20064;-79
2022/01/22 11:39:39;;;;;;;2.97;1.98;;;;;;;7.34;94.65;102781.41;5013814;28;20050;-79
2022/01/22 11:42:09;;;;;;;3.88;1.83;;;;;;;7.33;95.37;102777.03;5013091;28;20057;-79
2022/01/22 11:44:47;;;;;;;3.60;1.85;;;;;;;7.31;95.17;102770.00;5025074;28;20056;-79
2022/01/22 11:47:17;;;;;;;3.65;1.77;;;;;;;7.30;95.41;102775.91;5013134;28;20108;-78
2022/01/22 11:50:06;;;;;;;2.83;1.90;;;;;;;7.27;95.87;102781.72;5012707;28;20133;-79
2022/01/22 11:52:37;;;;;;;3.78;1.90;;;;;;;7.25;94.77;102775.56;4999957;28;20057;-78
2022/01/22 11:55:12;;;;;;;2.13;1.80;;;;;;;7.23;94.26;102777.13;5016302;28;20073;-78
2022/01/22 11:57:41;;;;;;;2.85;1.98;;;;;;;7.24;94.21;102781.50;5012983;28;20082;-78
2022/01/22 12:00:22;;;;;;;2.47;1.92;;;;;;;7.24;95.82;102772.84;5012972;28;20086;-79
2022/01/22 12:03:20;;;;;;;4.15;2.10;;;;;;;7.24;95.52;102773.78;5012273;28;20049;-78
2022/01/22 12:06:08;;;;;;;2.88;2.00;;;;;;;7.24;93.60;102767.72;5012707;28;20136;-78
2022/01/22 12:09:06;;;;;;;2.63;1.83;;;;;;;7.23;93.64;102771.97;5013308;28;20562;-78
2022/01/22 12:14:56;;;;;;;4.57;2.10;;;;;;;7.23;92.86;102776.22;5013247;28;20056;-79
2022/01/22 12:17:59;;;;;;;3.10;2.10;;;;;;;7.22;92.95;102775.34;4988845;28;20053;-79
2022/01/22 12:23:59;;;;;;;5.30;2.45;;;;;;;7.19;93.90;102764.78;4978579;28;20585;-78
2022/01/22 12:26:59;;;;;;;3.25;2.30;;;;;;;7.16;92.99;102764.56;5011635;28;20053;-79
2022/01/22 12:29:39;;;;;;;3.55;2.42;;;;;;;7.15;93.97;102760.22;5002466;28;20484;-79
2022/01/22 12:32:20;;;;;;;2.08;1.60;;;;;;;7.16;95.45;102762.00;5011338;28;20100;-79
2022/01/22 12:35:13;;;;;;;2.53;1.90;;;;;;;7.16;95.09;102759.41;5001114;28;20529;-79
2022/01/22 12:37:46;;;;;;;4.45;2.70;;;;;;;7.18;95.13;102754.41;5011424;28;20455;-79
2022/01/22 12:40:15;;;;;;;3.13;1.98;;;;;;;7.18;93.88;102757.84;5012106;28;20049;-78
2022/01/22 12:43:04;;;;;;;3.50;2.08;;;;;;;7.18;94.76;102762.13;5017147;28;20103;-78
2022/01/22 12:45:34;;;;;;;3.75;2.05;;;;;;;7.18;94.31;102763.00;5011987;28;20054;-78
2022/01/22 12:48:03;;;;;;;2.95;2.10;;;;;;;7.18;94.91;102760.44;5011601;28;20081;-79
2022/01/22 12:50:35;;;;;;;2.83;2.05;;;;;;;7.16;94.38;102754.28;5012283;28;20471;-78
2022/01/22 12:53:11;;;;;;;2.95;1.83;;;;;;;7.15;93.69;102744.78;5014118;28;20420;-78
2022/01/22 12:56:02;;;;;;;2.47;1.95;;;;;;;7.08;91.50;102739.94;5012044;28;20104;-78
2022/01/22 12:58:36;;;;;;;4.30;2.70;;;;;;;7.10;92.49;102736.69;5005130;28;20124;-77
2022/01/22 13:01:20;;;;;;;2.65;1.90;;;;;;;7.07;94.21;102738.13;5010980;28;20503;-77
2022/01/22 13:03:50;;;;;;;3.13;2.10;;;;;;;7.07;92.54;102744.16;4997765;28;20085;-77
2022/01/22 13:06:19;;;;;;;3.22;1.90;;;;;;;7.06;92.85;102747.53;5010747;28;20112;-78
2022/01/22 13:08:47;;;;;;;3.03;2.25;;;;;;;7.06;93.06;102742.38;5011651;28;20088;-78